Hauptseite
METAR-TAF:

METAR-TAF

Flughäfen :

Repulse Bay, Nunavut, Kanada

Breite: 66-32N, Länge: 086-15W, Höhe: 24 m

Beobachtung

Neuester Wetterbericht von vor 14 Minuten, um 19:00 UTC
Wind 3 kt aus Nord/Nordost, variierte zwischen Nord/Nordwest und Nord/Nordost
Temperatur -29°C
Luftfeuchtigkeit 75%
Luftdruck 997 hPa
Sichtweite: 40.2 km
Leicht bewölkt in der Höhe von 15000 ft

METAR: CYUT 251900Z 02003KT 330V030 25SM FEW150 M29/M32 A2943 RMK AC1 AC TR SLP972

Zeit: 13:14 (19:14 UTC)

Prognose

Neuester Wetterbericht von vor 2 Stunden und 36 Minuten, um 16:38 UTC
Gültige Prognose vom 25 um 17 UTC bis 25 um 21 UTC
Wind 3 kt aus unterschiedlichen Richtungen
Sichtweite: 10 km
Himmel klar
Eisnadeln

TAF: CYUT 251638Z 2517/2521 VRB03KT P6SM IC SKC RMK NXT FCST WILL BE ISSUED AT 261445Z

Wetterbeobachtungen und Prognosen von mehr als 4000 Flughäfen (METAR und TAF Bericht).

Die verfügbaren Stationen werden durch gelbe und rote Markierungen auf der Karte dargestellt.

Führen Sie die Maus auf sie, um den Namen der Station zu sehen.

Darauf klicken, um die Beobachtung von Wetterbeobachtungen und Prognosen zu sehen.

Um die Karte zu ändern : klicken Sie auf den grünen Tasten mit einem schwarzen Kreuz Zum Vergrößern, auf den grünen Button mit einem Gedankenstrich zu verkleinern, oder auf die grünen Pfeile für benachbarte Karten.


METAR-TAF: